Time;durP1;ratioP1;P1;durP2;ratioP2;P2;SDS_P1;SDS_P2;PMS_P1;PMS_P2;Temp;Humidity;BMP_temperature;BMP_pressure;BME280_temperature;BME280_humidity;BME280_pressure;Samples;Min_cycle;Max_cycle;Signal;HPM_P1;HPM_P2
2023/11/25 00:00:46;;;;;;;0.77;0.77;;;6.30;89.50;;;;;;4918413;29;20653;-65
2023/11/25 00:03:13;;;;;;;0.38;0.38;;;6.10;88.90;;;;;;4917338;29;20206;-65
2023/11/25 00:05:38;;;;;;;0.40;0.40;;;6.10;89.90;;;;;;4917785;29;20171;-65
2023/11/25 00:08:05;;;;;;;0.40;0.40;;;6.20;90.20;;;;;;4917828;29;20547;-65
2023/11/25 00:10:31;;;;;;;0.52;0.52;;;6.30;90.20;;;;;;4900980;29;20411;-65
2023/11/25 00:12:56;;;;;;;0.40;0.40;;;6.40;90.30;;;;;;4917370;29;20729;-66
2023/11/25 00:15:23;;;;;;;0.40;0.40;;;6.40;90.50;;;;;;4917628;29;20199;-65
2023/11/25 00:17:50;;;;;;;0.30;0.30;;;6.30;90.50;;;;;;4897192;29;20239;-65
2023/11/25 00:20:16;;;;;;;0.30;0.30;;;6.30;91.10;;;;;;4908776;29;20243;-65
2023/11/25 00:22:42;;;;;;;0.30;0.30;;;6.30;91.20;;;;;;4917168;29;20586;-66
2023/11/25 00:25:12;;;;;;;0.30;0.30;;;6.40;91.30;;;;;;4917491;29;20179;-65
2023/11/25 00:27:37;;;;;;;0.40;0.40;;;6.20;91.50;;;;;;4900252;29;20187;-65
2023/11/25 00:30:04;;;;;;;0.40;0.40;;;6.20;91.60;;;;;;4900277;29;20191;-65
2023/11/25 00:32:30;;;;;;;0.60;0.60;;;5.90;91.90;;;;;;4917092;29;20191;-66
2023/11/25 00:34:56;;;;;;;0.40;0.40;;;5.60;91.60;;;;;;4917183;29;20194;-65
2023/11/25 00:37:22;;;;;;;0.47;0.40;;;5.70;91.60;;;;;;4916527;29;20183;-65
2023/11/25 00:39:48;;;;;;;0.90;0.60;;;5.60;91.20;;;;;;4917131;29;20727;-65
2023/11/25 00:42:14;;;;;;;0.40;0.40;;;5.70;90.60;;;;;;4916585;29;20242;-66
2023/11/25 00:44:40;;;;;;;0.55;0.55;;;5.80;90.50;;;;;;4916872;29;20179;-65
2023/11/25 00:47:11;;;;;;;1.53;1.20;;;5.70;90.70;;;;;;4917042;29;20175;-65
2023/11/25 00:49:38;;;;;;;0.30;0.30;;;5.80;90.60;;;;;;4917047;29;20172;-66
2023/11/25 00:52:06;;;;;;;0.40;0.40;;;5.80;90.20;;;;;;4916753;29;20194;-66
2023/11/25 00:54:31;;;;;;;0.43;0.43;;;5.50;90.00;;;;;;4916745;29;20521;-66
2023/11/25 00:56:58;;;;;;;0.40;0.40;;;5.50;90.60;;;;;;4916864;29;20318;-65
2023/11/25 00:59:23;;;;;;;0.40;0.40;;;5.50;90.50;;;;;;4916836;29;20182;-65
2023/11/25 01:01:49;;;;;;;0.30;0.30;;;5.20;90.60;;;;;;4916694;29;20210;-65
2023/11/25 01:04:16;;;;;;;1.23;1.13;;;5.50;90.50;;;;;;4916563;29;20738;-65
2023/11/25 01:06:47;;;;;;;0.60;0.60;;;5.50;90.20;;;;;;4916758;29;20782;-66
2023/11/25 01:09:15;;;;;;;1.02;0.85;;;5.70;90.20;;;;;;4916653;29;20616;-66
2023/11/25 01:11:41;;;;;;;0.93;0.47;;;5.50;90.40;;;;;;4916413;29;20266;-65
2023/11/25 01:14:08;;;;;;;0.63;0.63;;;5.00;91.00;;;;;;4916232;29;20195;-65
2023/11/25 01:16:34;;;;;;;1.05;1.02;;;5.40;91.40;;;;;;4899584;29;20498;-65
2023/11/25 01:18:59;;;;;;;0.40;0.40;;;5.60;91.00;;;;;;4899739;29;20190;-66
2023/11/25 01:21:25;;;;;;;0.40;0.40;;;5.60;90.90;;;;;;4899690;29;20721;-65
2023/11/25 01:23:51;;;;;;;0.40;0.40;;;5.70;91.10;;;;;;4916054;29;20171;-65
2023/11/25 01:26:17;;;;;;;0.30;0.30;;;5.70;91.20;;;;;;4916359;29;20187;-67
2023/11/25 01:28:43;;;;;;;0.30;0.30;;;5.60;91.60;;;;;;4916249;29;20234;-66
2023/11/25 01:31:10;;;;;;;0.50;0.50;;;5.50;91.60;;;;;;4916156;29;20661;-66
2023/11/25 01:33:36;;;;;;;0.30;0.30;;;5.50;91.30;;;;;;4916095;29;20418;-66
2023/11/25 01:36:03;;;;;;;0.52;0.52;;;5.10;91.40;;;;;;4916169;29;20202;-66
2023/11/25 01:38:29;;;;;;;0.40;0.40;;;4.90;92.10;;;;;;4916054;29;20230;-66
2023/11/25 01:40:56;;;;;;;0.60;0.60;;;4.80;92.40;;;;;;4916183;29;20174;-66
2023/11/25 01:43:25;;;;;;;1.08;1.02;;;5.10;92.20;;;;;;4915487;29;20231;-66
2023/11/25 01:45:54;;;;;;;0.40;0.40;;;5.10;92.50;;;;;;4916088;29;20198;-65
2023/11/25 01:48:19;;;;;;;0.30;0.30;;;5.40;92.50;;;;;;4915123;29;20171;-66
2023/11/25 01:50:45;;;;;;;0.60;0.60;;;5.70;92.10;;;;;;4899053;29;20274;-66
2023/11/25 01:53:14;;;;;;;0.30;0.30;;;5.60;91.20;;;;;;4915533;29;20194;-66
2023/11/25 01:55:41;;;;;;;0.40;0.40;;;5.70;91.80;;;;;;4915867;29;20487;-66
2023/11/25 01:58:07;;;;;;;0.40;0.40;;;5.70;92.00;;;;;;4915769;29;20598;-66
2023/11/25 02:00:35;;;;;;;0.60;0.60;;;5.40;92.00;;;;;;4895426;29;20271;-66
2023/11/25 02:03:01;;;;;;;0.40;0.40;;;5.10;92.40;;;;;;4905836;29;20219;-66
2023/11/25 02:05:27;;;;;;;0.50;0.50;;;5.20;92.70;;;;;;4915729;29;20183;-66
2023/11/25 02:07:53;;;;;;;0.40;0.40;;;5.20;92.80;;;;;;4915741;29;20553;-65
2023/11/25 02:10:19;;;;;;;0.40;0.40;;;5.40;92.70;;;;;;4898630;29;20182;-66
2023/11/25 02:12:46;;;;;;;0.70;0.70;;;5.60;91.80;;;;;;4915347;29;20897;-66
2023/11/25 02:15:14;;;;;;;0.40;0.40;;;5.60;91.90;;;;;;4915620;29;20179;-66
2023/11/25 02:17:44;;;;;;;1.13;1.13;;;5.70;92.10;;;;;;4915642;29;20774;-66
2023/11/25 02:20:13;;;;;;;0.40;0.40;;;5.40;91.90;;;;;;4915447;29;20179;-66
2023/11/25 02:22:42;;;;;;;0.82;0.68;;;5.00;92.60;;;;;;4915158;29;20353;-65
2023/11/25 02:25:07;;;;;;;0.30;0.30;;;5.20;92.10;;;;;;4915584;29;20545;-65
2023/11/25 02:27:34;;;;;;;1.47;0.80;;;5.10;91.90;;;;;;4915494;29;20171;-66
2023/11/25 02:30:06;;;;;;;0.40;0.40;;;5.40;91.20;;;;;;4915526;29;20414;-65
2023/11/25 02:32:33;;;;;;;0.50;0.50;;;5.60;90.90;;;;;;4915134;29;20190;-66
2023/11/25 02:35:00;;;;;;;1.25;0.80;;;5.60;90.70;;;;;;4915359;29;20178;-65
2023/11/25 02:37:27;;;;;;;0.40;0.35;;;5.60;90.10;;;;;;4915497;29;20587;-66
2023/11/25 02:39:52;;;;;;;0.82;0.82;;;5.40;91.00;;;;;;4915965;29;20249;-65
2023/11/25 02:42:18;;;;;;;0.40;0.40;;;5.40;91.30;;;;;;4898088;29;20844;-66
2023/11/25 02:44:45;;;;;;;0.30;0.30;;;5.90;91.00;;;;;;4915244;29;20177;-65
2023/11/25 02:47:11;;;;;;;0.43;0.43;;;6.00;90.40;;;;;;4915350;29;20182;-65
2023/11/25 02:49:36;;;;;;;0.40;0.40;;;6.20;89.40;;;;;;4915339;29;20183;-65
2023/11/25 02:52:04;;;;;;;0.90;0.90;;;6.10;90.00;;;;;;4914801;29;20222;-65
2023/11/25 02:54:32;;;;;;;0.45;0.45;;;5.70;90.60;;;;;;4915138;29;20239;-65
2023/11/25 02:56:58;;;;;;;0.50;0.50;;;5.70;90.30;;;;;;4898199;29;20242;-65
2023/11/25 02:59:23;;;;;;;5.37;1.13;;;5.50;90.10;;;;;;4916373;29;20179;-65
2023/11/25 03:01:51;;;;;;;0.30;0.30;;;5.70;90.00;;;;;;4918630;29;20245;-65
2023/11/25 03:04:23;;;;;;;0.60;0.60;;;5.80;89.90;;;;;;4918584;29;20171;-65
2023/11/25 03:06:51;;;;;;;0.40;0.40;;;5.80;90.30;;;;;;4919021;29;20226;-65
2023/11/25 03:09:17;;;;;;;0.40;0.40;;;5.80;89.90;;;;;;4918756;29;20171;-65
2023/11/25 03:11:43;;;;;;;0.82;0.82;;;5.80;90.00;;;;;;4918598;29;20230;-65
2023/11/25 03:14:09;;;;;;;0.50;0.50;;;5.80;90.30;;;;;;4918971;29;20687;-65
2023/11/25 03:16:35;;;;;;;1.67;1.03;;;5.70;89.80;;;;;;4918605;29;20486;-65
2023/11/25 03:19:01;;;;;;;0.40;0.40;;;6.00;90.10;;;;;;4917248;29;20864;-65
2023/11/25 03:21:28;;;;;;;0.40;0.40;;;6.20;89.70;;;;;;4918367;29;20301;-65
2023/11/25 03:23:54;;;;;;;0.40;0.40;;;6.40;88.40;;;;;;4918253;29;20167;-65
2023/11/25 03:26:19;;;;;;;0.40;0.40;;;6.40;87.20;;;;;;4918409;29;20174;-65
2023/11/25 03:28:45;;;;;;;0.50;0.50;;;6.20;88.90;;;;;;4918573;29;20411;-65
2023/11/25 03:31:12;;;;;;;0.40;0.40;;;6.20;89.10;;;;;;4918366;29;20544;-65
2023/11/25 03:33:38;;;;;;;0.50;0.50;;;6.20;89.50;;;;;;4918095;29;20183;-65
2023/11/25 03:36:04;;;;;;;0.70;0.70;;;6.40;87.90;;;;;;4918290;29;20183;-65
2023/11/25 03:38:30;;;;;;;0.50;0.50;;;6.40;87.30;;;;;;4918172;29;20189;-65
2023/11/25 03:40:56;;;;;;;0.40;0.40;;;6.40;86.90;;;;;;4917878;29;20198;-65
2023/11/25 03:43:23;;;;;;;0.40;0.40;;;6.30;86.90;;;;;;4917582;29;20225;-65
2023/11/25 03:45:50;;;;;;;1.27;1.17;;;6.30;88.00;;;;;;4918107;29;20193;-65
2023/11/25 03:48:16;;;;;;;0.40;0.40;;;6.20;87.60;;;;;;4918015;29;20179;-65
2023/11/25 03:50:45;;;;;;;0.30;0.30;;;6.20;86.50;;;;;;4917861;29;20183;-65
2023/11/25 03:53:11;;;;;;;0.40;0.40;;;6.10;86.40;;;;;;4917496;29;20278;-65
2023/11/25 03:55:36;;;;;;;0.40;0.40;;;6.10;86.50;;;;;;4917866;29;20179;-65
2023/11/25 03:58:03;;;;;;;9.73;0.63;;;5.80;85.60;;;;;;4917846;29;20419;-65
2023/11/25 04:00:28;;;;;;;0.40;0.40;;;5.70;85.60;;;;;;4918084;29;20225;-65
2023/11/25 04:02:54;;;;;;;0.50;0.50;;;5.70;86.20;;;;;;4917325;29;20237;-65
2023/11/25 04:05:22;;;;;;;4.40;4.20;;;5.70;86.50;;;;;;4917729;29;20446;-65
2023/11/25 04:07:49;;;;;;;0.40;0.40;;;5.80;87.90;;;;;;4917570;29;20258;-65
2023/11/25 04:10:15;;;;;;;0.85;0.85;;;5.90;87.00;;;;;;4917109;29;20684;-65
2023/11/25 04:12:48;;;;;;;0.38;0.38;;;6.00;85.90;;;;;;4916772;29;20230;-65
2023/11/25 04:15:16;;;;;;;0.30;0.30;;;5.70;86.40;;;;;;4917589;29;20185;-65
2023/11/25 04:17:42;;;;;;;0.38;0.38;;;5.60;87.00;;;;;;4917641;29;20177;-65
2023/11/25 04:20:24;;;;;;;0.30;0.30;;;5.60;87.70;;;;;;4917475;29;20329;-65
2023/11/25 04:22:50;;;;;;;4.25;2.78;;;5.60;87.20;;;;;;4916986;29;20206;-65
2023/11/25 04:25:16;;;;;;;0.30;0.30;;;5.70;86.30;;;;;;4917322;29;20179;-65
2023/11/25 04:27:49;;;;;;;0.40;0.40;;;5.80;87.40;;;;;;4896966;29;20182;-65
2023/11/25 04:30:16;;;;;;;0.30;0.30;;;5.80;86.80;;;;;;4909401;29;20987;-65
2023/11/25 04:32:43;;;;;;;0.30;0.30;;;5.80;86.80;;;;;;4916875;29;20345;-65
2023/11/25 04:35:10;;;;;;;13.80;1.52;;;5.80;87.50;;;;;;4900222;29;20322;-65
2023/11/25 04:37:37;;;;;;;0.47;0.47;;;5.80;88.50;;;;;;4917224;29;20190;-65
2023/11/25 04:40:07;;;;;;;0.30;0.30;;;5.90;88.90;;;;;;4900060;29;20183;-65
2023/11/25 04:42:33;;;;;;;0.30;0.30;;;5.90;88.40;;;;;;5000006;23;20242;-64
2023/11/25 04:45:01;;;;;;;1.10;0.45;;;5.90;87.40;;;;;;4993956;28;20191;-64
2023/11/25 04:47:28;;;;;;;0.85;0.85;;;5.70;88.60;;;;;;4993740;28;20172;-64
2023/11/25 04:49:54;;;;;;;0.50;0.50;;;5.70;87.50;;;;;;4993737;28;20610;-64
2023/11/25 04:52:20;;;;;;;4.07;2.33;;;5.40;87.20;;;;;;4993442;28;20227;-64
2023/11/25 04:54:46;;;;;;;0.47;0.47;;;5.30;88.70;;;;;;4993341;28;20417;-64
2023/11/25 04:57:12;;;;;;;0.82;0.82;;;5.60;89.20;;;;;;4976276;28;20187;-64
2023/11/25 04:59:38;;;;;;;0.30;0.30;;;5.80;89.30;;;;;;4993610;28;20556;-64
2023/11/25 05:02:05;;;;;;;0.70;0.70;;;5.90;87.70;;;;;;4993241;28;20298;-64
2023/11/25 05:04:31;;;;;;;0.50;0.50;;;5.90;87.20;;;;;;4993206;28;20187;-64
2023/11/25 05:06:56;;;;;;;0.40;0.40;;;5.90;86.70;;;;;;4993218;28;20180;-64
2023/11/25 05:09:25;;;;;;;0.40;0.40;;;6.00;86.70;;;;;;4992981;28;20302;-64
2023/11/25 05:11:52;;;;;;;0.40;0.40;;;5.90;85.30;;;;;;4976247;28;20580;-64
2023/11/25 05:14:18;;;;;;;0.75;0.75;;;5.70;85.10;;;;;;4993012;28;20172;-64
2023/11/25 05:16:44;;;;;;;0.30;0.30;;;5.40;84.50;;;;;;4975688;28;20195;-63
2023/11/25 05:19:10;;;;;;;0.30;0.30;;;5.50;84.90;;;;;;4993092;28;20179;-64
2023/11/25 05:21:35;;;;;;;0.50;0.50;;;5.40;84.60;;;;;;4992330;28;20186;-64
2023/11/25 05:24:03;;;;;;;0.40;0.40;;;5.40;84.90;;;;;;4992664;28;20188;-64
2023/11/25 05:26:29;;;;;;;0.40;0.40;;;5.40;85.50;;;;;;4975523;28;20314;-64
2023/11/25 05:28:54;;;;;;;0.40;0.40;;;5.40;87.00;;;;;;4992960;28;20642;-64
2023/11/25 05:31:22;;;;;;;0.60;0.60;;;5.40;86.00;;;;;;4992916;28;20178;-64
2023/11/25 05:33:48;;;;;;;0.30;0.30;;;5.40;86.20;;;;;;4992522;28;20197;-64
2023/11/25 05:36:14;;;;;;;2.15;1.40;;;5.30;85.90;;;;;;4992656;28;20323;-64
2023/11/25 05:38:40;;;;;;;0.37;0.37;;;5.00;86.70;;;;;;4975498;28;20263;-63
2023/11/25 05:41:08;;;;;;;0.30;0.30;;;4.90;87.60;;;;;;4992793;28;20505;-64
2023/11/25 05:43:34;;;;;;;0.30;0.30;;;4.80;87.30;;;;;;4992195;28;20200;-64
2023/11/25 05:46:00;;;;;;;0.37;0.37;;;4.80;88.20;;;;;;4992682;28;20175;-64
2023/11/25 05:48:27;;;;;;;0.50;0.50;;;4.90;88.50;;;;;;4975812;28;20284;-64
2023/11/25 05:50:52;;;;;;;0.30;0.30;;;4.90;88.80;;;;;;4975102;28;20661;-64
2023/11/25 05:53:18;;;;;;;1.20;1.10;;;4.90;87.00;;;;;;4992237;28;20205;-63
2023/11/25 05:55:44;;;;;;;4.50;0.70;;;4.70;85.20;;;;;;4992534;28;20214;-64
2023/11/25 05:58:13;;;;;;;0.40;0.40;;;4.50;85.40;;;;;;4992598;28;20656;-64
2023/11/25 06:00:38;;;;;;;8.02;1.05;;;4.50;85.10;;;;;;4992533;28;20172;-64
2023/11/25 06:03:04;;;;;;;0.30;0.30;;;4.50;83.80;;;;;;4992081;28;20207;-64
2023/11/25 06:05:30;;;;;;;0.97;0.40;;;4.40;84.10;;;;;;4992371;28;20173;-64
2023/11/25 06:07:56;;;;;;;0.30;0.30;;;4.30;83.50;;;;;;4992329;28;20415;-64
2023/11/25 06:10:22;;;;;;;1.33;1.33;;;4.20;84.20;;;;;;4991958;28;20199;-64
2023/11/25 06:12:49;;;;;;;0.30;0.30;;;4.20;83.70;;;;;;4991930;28;20436;-64
2023/11/25 06:15:15;;;;;;;0.30;0.30;;;4.10;84.70;;;;;;4992294;28;20204;-64
2023/11/25 06:17:43;;;;;;;0.30;0.30;;;3.90;85.20;;;;;;4992110;28;20185;-64
2023/11/25 06:20:09;;;;;;;0.40;0.40;;;3.70;84.10;;;;;;4974722;28;20195;-63
2023/11/25 06:22:35;;;;;;;0.30;0.30;;;3.40;84.10;;;;;;4991746;28;20662;-64
2023/11/25 06:25:04;;;;;;;0.73;0.73;;;3.40;85.50;;;;;;4990416;28;20262;-64
2023/11/25 06:27:30;;;;;;;0.30;0.30;;;3.50;85.30;;;;;;4991975;28;20181;-64
2023/11/25 06:29:55;;;;;;;2.20;2.10;;;3.50;85.70;;;;;;4992062;28;20717;-63
2023/11/25 06:32:24;;;;;;;0.40;0.40;;;3.30;86.00;;;;;;4979862;28;20201;-63
2023/11/25 06:34:50;;;;;;;0.75;0.40;;;2.50;86.90;;;;;;4993486;28;20177;-63
2023/11/25 06:37:18;;;;;;;0.30;0.30;;;1.80;88.80;;;;;;4996330;28;20186;-63
2023/11/25 06:39:43;;;;;;;0.35;0.35;;;1.50;90.30;;;;;;4996319;28;20180;-62
2023/11/25 06:42:09;;;;;;;0.50;0.50;;;1.20;91.50;;;;;;4996088;28;20617;-63
2023/11/25 06:44:35;;;;;;;0.50;0.50;;;1.20;91.70;;;;;;4995835;28;20248;-63
2023/11/25 06:47:01;;;;;;;0.30;0.30;;;1.30;92.20;;;;;;4995677;28;20608;-63
2023/11/25 06:49:27;;;;;;;0.40;0.40;;;1.20;92.30;;;;;;4995734;28;20177;-64
2023/11/25 06:51:53;;;;;;;0.30;0.30;;;1.10;92.40;;;;;;4995681;28;20240;-64
2023/11/25 06:54:18;;;;;;;1.87;1.77;;;1.10;92.50;;;;;;4995620;28;20205;-63
2023/11/25 06:56:44;;;;;;;0.30;0.30;;;1.20;92.70;;;;;;4994727;28;20181;-64
2023/11/25 06:59:10;;;;;;;3.75;1.23;;;1.30;92.80;;;;;;4995767;28;20217;-63
2023/11/25 07:01:36;;;;;;;0.60;0.60;;;1.10;92.90;;;;;;4995261;28;20218;-63
2023/11/25 07:04:05;;;;;;;0.77;0.77;;;1.20;92.70;;;;;;4995017;28;20664;-64
2023/11/25 07:06:31;;;;;;;0.50;0.50;;;1.40;92.70;;;;;;4995230;28;20249;-63
2023/11/25 07:09:00;;;;;;;0.30;0.30;;;1.50;92.60;;;;;;4995825;28;20667;-63
2023/11/25 07:11:26;;;;;;;1.48;1.05;;;1.70;92.20;;;;;;4995457;28;20177;-63
2023/11/25 07:13:54;;;;;;;0.40;0.40;;;1.80;91.80;;;;;;4995047;28;20192;-63
2023/11/25 07:16:21;;;;;;;0.30;0.30;;;2.00;91.90;;;;;;4995331;28;20197;-64
2023/11/25 07:18:48;;;;;;;0.93;0.93;;;2.00;92.00;;;;;;4994210;28;20236;-65
2023/11/25 07:21:15;;;;;;;0.45;0.45;;;2.00;92.00;;;;;;4995410;28;20189;-65
2023/11/25 07:23:42;;;;;;;0.40;0.40;;;2.20;92.70;;;;;;4994957;28;20218;-65
2023/11/25 07:26:11;;;;;;;0.30;0.30;;;2.20;93.00;;;;;;4995208;28;20704;-65
2023/11/25 07:28:37;;;;;;;0.60;0.60;;;2.40;93.40;;;;;;4994899;28;20185;-65
2023/11/25 07:31:03;;;;;;;0.52;0.52;;;2.60;93.10;;;;;;4994319;28;20179;-65
2023/11/25 07:33:29;;;;;;;0.60;0.60;;;2.80;93.20;;;;;;4994574;28;20218;-66
2023/11/25 07:35:55;;;;;;;0.40;0.40;;;2.80;92.10;;;;;;4993351;28;20434;-65
2023/11/25 07:38:20;;;;;;;0.70;0.70;;;3.00;92.20;;;;;;4994573;28;20433;-65
2023/11/25 07:40:46;;;;;;;0.60;0.60;;;2.80;92.00;;;;;;4994997;28;20176;-64
2023/11/25 07:43:15;;;;;;;0.40;0.40;;;2.80;92.20;;;;;;4994280;28;20278;-65
2023/11/25 07:45:41;;;;;;;0.60;0.55;;;2.80;91.80;;;;;;4994398;28;20180;-66
2023/11/25 07:48:07;;;;;;;0.77;0.77;;;2.50;90.80;;;;;;4994667;28;20182;-65
2023/11/25 07:50:33;;;;;;;0.40;0.40;;;2.60;91.30;;;;;;4993569;28;20421;-65
2023/11/25 07:52:58;;;;;;;0.30;0.30;;;2.70;91.80;;;;;;4994347;28;20646;-65
2023/11/25 07:55:24;;;;;;;0.40;0.40;;;2.80;91.70;;;;;;4994653;28;20254;-65
2023/11/25 07:57:50;;;;;;;0.43;0.43;;;2.90;91.70;;;;;;4992957;28;20459;-65
2023/11/25 08:00:18;;;;;;;0.40;0.40;;;3.10;91.40;;;;;;4993264;28;20246;-65
2023/11/25 08:02:44;;;;;;;0.40;0.40;;;3.30;90.90;;;;;;4992624;28;20459;-66
2023/11/25 08:05:21;;;;;;;0.40;0.40;;;4.10;91.60;;;;;;4993721;28;20176;-65
2023/11/25 08:07:50;;;;;;;1.00;0.40;;;4.70;90.80;;;;;;4992643;28;20207;-65
2023/11/25 08:10:17;;;;;;;2.05;1.20;;;5.00;90.60;;;;;;4987192;28;20916;-63
2023/11/25 08:12:45;;;;;;;0.40;0.40;;;5.20;86.60;;;;;;4993578;28;20307;-64
2023/11/25 08:15:11;;;;;;;0.40;0.40;;;5.00;86.50;;;;;;4993771;28;20619;-63
2023/11/25 08:17:38;;;;;;;1.73;1.60;;;4.60;87.60;;;;;;4992876;28;20185;-64
2023/11/25 08:20:05;;;;;;;0.73;0.70;;;4.40;88.60;;;;;;4994392;28;20176;-63
2023/11/25 08:22:31;;;;;;;0.40;0.40;;;4.20;89.70;;;;;;4993803;28;20200;-63
2023/11/25 08:25:00;;;;;;;0.73;0.73;;;4.10;90.10;;;;;;4993989;28;20181;-63
2023/11/25 08:27:25;;;;;;;0.40;0.40;;;4.00;90.40;;;;;;4994314;28;20251;-63
2023/11/25 08:29:51;;;;;;;0.47;0.47;;;3.50;89.70;;;;;;4993865;28;20689;-63
2023/11/25 08:32:17;;;;;;;0.30;0.30;;;3.20;90.10;;;;;;4992758;28;20230;-63
2023/11/25 08:34:43;;;;;;;1.40;0.60;;;3.00;90.40;;;;;;4993680;28;20276;-63
2023/11/25 08:37:08;;;;;;;0.40;0.40;;;3.00;90.90;;;;;;4992957;28;20176;-63
2023/11/25 08:39:36;;;;;;;0.30;0.30;;;3.10;91.10;;;;;;4993875;28;20172;-62
2023/11/25 08:42:02;;;;;;;1.75;1.15;;;3.10;91.70;;;;;;4993681;28;20220;-63
2023/11/25 08:44:28;;;;;;;0.30;0.30;;;3.80;99.90;;;;;;4992879;28;20188;-64
2023/11/25 08:46:56;;;;;;;0.40;0.40;;;3.50;90.80;;;;;;4976366;28;20194;-63
2023/11/25 08:49:23;;;;;;;8.88;2.50;;;3.70;99.90;;;;;;4993526;28;20944;-63
2023/11/25 08:51:51;;;;;;;4.07;3.88;;;3.60;90.90;;;;;;4993366;28;20204;-63
2023/11/25 08:54:20;;;;;;;1.55;1.45;;;3.70;90.90;;;;;;4992956;28;20198;-64
2023/11/25 08:56:47;;;;;;;1.02;0.93;;;3.90;99.90;;;;;;4992909;28;20658;-63
2023/11/25 08:59:21;;;;;;;0.50;0.50;;;4.20;94.70;;;;;;4993583;28;20191;-63
2023/11/25 09:01:47;;;;;;;0.40;0.40;;;3.30;95.60;;;;;;4993307;28;20200;-64
2023/11/25 09:04:19;;;;;;;1.08;1.08;;;4.00;94.50;;;;;;4993013;28;20176;-63
2023/11/25 09:06:46;;;;;;;0.40;0.40;;;3.40;93.10;;;;;;4993339;28;20529;-63
2023/11/25 09:09:14;;;;;;;0.30;0.30;;;3.60;93.60;;;;;;4993284;28;20207;-63
2023/11/25 09:11:44;;;;;;;0.40;0.40;;;3.50;99.90;;;;;;4993030;28;20181;-63
2023/11/25 09:14:10;;;;;;;0.40;0.40;;;3.60;93.50;;;;;;4992368;28;20263;-63
2023/11/25 09:16:37;;;;;;;1.92;0.63;;;3.80;93.80;;;;;;4992679;28;20235;-63
2023/11/25 09:19:04;;;;;;;0.60;0.60;;;3.90;95.10;;;;;;4992928;28;20550;-63
2023/11/25 09:21:30;;;;;;;0.70;0.70;;;3.70;97.30;;;;;;4993257;28;20211;-63
2023/11/25 09:23:56;;;;;;;0.40;0.40;;;3.80;96.40;;;;;;4992709;28;20773;-64
2023/11/25 09:26:26;;;;;;;0.40;0.40;;;3.40;99.90;;;;;;4992960;28;20263;-63
2023/11/25 09:28:55;;;;;;;1.58;1.48;;;3.60;95.80;;;;;;4992927;28;20408;-63
2023/11/25 09:31:21;;;;;;;1.67;0.95;;;3.60;94.70;;;;;;4992963;28;20728;-63
2023/11/25 09:33:47;;;;;;;0.75;0.50;;;3.60;93.00;;;;;;4992276;28;20549;-63
2023/11/25 09:36:13;;;;;;;14.23;12.73;;;3.50;92.50;;;;;;4992799;28;20176;-63
2023/11/25 09:38:38;;;;;;;2.93;2.20;;;3.50;92.50;;;;;;4992029;28;20188;-65
2023/11/25 09:41:05;;;;;;;12.63;1.83;;;3.60;92.40;;;;;;4992854;28;20172;-63
2023/11/25 09:43:31;;;;;;;12.27;1.48;;;3.80;92.70;;;;;;4992504;28;20218;-63
2023/11/25 09:45:57;;;;;;;0.70;0.70;;;3.90;92.30;;;;;;4991766;28;20176;-63
2023/11/25 09:48:23;;;;;;;1.80;1.45;;;4.20;94.00;;;;;;4992449;28;20179;-63
2023/11/25 09:50:53;;;;;;;1.50;0.60;;;4.30;93.90;;;;;;4992133;28;20192;-63
2023/11/25 09:53:27;;;;;;;0.50;0.50;;;3.80;91.90;;;;;;4992366;28;20478;-63
2023/11/25 09:56:05;;;;;;;0.80;0.50;;;3.80;91.70;;;;;;4992173;28;20184;-63
2023/11/25 09:58:35;;;;;;;0.40;0.40;;;3.70;91.40;;;;;;4992424;28;20634;-63
2023/11/25 10:01:05;;;;;;;0.98;0.88;;;3.90;91.90;;;;;;4992328;28;20184;-64
2023/11/25 10:03:33;;;;;;;1.70;1.50;;;4.30;92.90;;;;;;4991841;28;20216;-63
2023/11/25 10:05:59;;;;;;;0.63;0.63;;;4.60;92.80;;;;;;4992329;28;20192;-63
2023/11/25 10:08:25;;;;;;;0.70;0.70;;;4.50;99.90;;;;;;4991829;28;20553;-63
2023/11/25 10:11:08;;;;;;;2.13;0.93;;;5.10;94.20;;;;;;4991920;28;20176;-63
2023/11/25 10:13:42;;;;;;;0.40;0.40;;;4.80;93.20;;;;;;4990544;28;20262;-63
2023/11/25 10:16:08;;;;;;;0.45;0.45;;;4.90;92.90;;;;;;4991915;28;20593;-63
2023/11/25 10:18:38;;;;;;;5.18;1.00;;;5.00;91.40;;;;;;4991878;28;20528;-63
2023/11/25 10:21:06;;;;;;;0.30;0.30;;;4.90;94.70;;;;;;4991843;28;20618;-63
2023/11/25 10:23:32;;;;;;;4.18;1.17;;;4.30;91.50;;;;;;4991710;28;20551;-63
2023/11/25 10:26:03;;;;;;;0.40;0.40;;;5.10;91.70;;;;;;4991992;28;20203;-63
2023/11/25 10:28:32;;;;;;;0.40;0.40;;;4.60;99.90;;;;;;4991327;28;20188;-63
2023/11/25 10:31:04;;;;;;;0.55;0.55;;;4.20;91.50;;;;;;4991565;28;20253;-63
2023/11/25 10:33:30;;;;;;;6.57;0.95;;;4.90;96.00;;;;;;4991597;28;20709;-63
2023/11/25 10:35:56;;;;;;;0.40;0.40;;;4.60;97.10;;;;;;4992134;28;20188;-63
2023/11/25 10:38:27;;;;;;;0.52;0.50;;;4.20;95.10;;;;;;4991852;28;20295;-63
2023/11/25 10:41:05;;;;;;;0.30;0.30;;;4.90;91.70;;;;;;4992000;28;20724;-63
2023/11/25 10:43:32;;;;;;;0.50;0.50;;;4.30;99.90;;;;;;4991430;28;20220;-63
2023/11/25 10:46:06;;;;;;;0.40;0.40;;;4.00;90.60;;;;;;5002213;23;20231;-64
2023/11/25 10:48:38;;;;;;;3.88;3.67;;;3.10;99.90;;;;;;4972754;28;20204;-64
2023/11/25 10:51:04;;;;;;;0.40;0.40;;;3.90;93.80;;;;;;4972624;28;20277;-64
2023/11/25 10:53:30;;;;;;;0.40;0.40;;;3.40;92.20;;;;;;4972336;28;20252;-65
2023/11/25 10:56:00;;;;;;;0.38;0.38;;;3.10;92.10;;;;;;4972651;28;20432;-64
2023/11/25 10:58:28;;;;;;;2.72;2.15;;;3.10;92.80;;;;;;4972334;28;20235;-65
2023/11/25 11:00:55;;;;;;;0.40;0.40;;;2.80;92.50;;;;;;4972598;28;20247;-64
2023/11/25 11:03:22;;;;;;;0.40;0.40;;;3.30;95.20;;;;;;4972064;28;20220;-64
2023/11/25 11:05:50;;;;;;;0.40;0.40;;;3.80;96.00;;;;;;4972437;28;20189;-64
2023/11/25 11:08:31;;;;;;;0.70;0.70;;;3.30;92.60;;;;;;4972346;28;20170;-65
2023/11/25 11:11:03;;;;;;;0.40;0.40;;;4.60;93.70;;;;;;4972369;28;20326;-64
2023/11/25 11:13:36;;;;;;;0.45;0.45;;;3.60;99.90;;;;;;4972129;28;20256;-64
2023/11/25 11:16:17;;;;;;;0.40;0.40;;;3.70;91.20;;;;;;4972215;28;20327;-65
2023/11/25 11:18:44;;;;;;;0.60;0.60;;;4.40;99.90;;;;;;4972233;28;20190;-64
2023/11/25 11:21:11;;;;;;;8.07;3.83;;;4.80;99.80;;;;;;4974607;28;20177;-65
2023/11/25 11:23:37;;;;;;;2.47;2.38;;;4.10;99.90;;;;;;4975562;28;20278;-64
2023/11/25 11:26:14;;;;;;;2.63;1.87;;;4.50;99.90;;;;;;4975880;28;20225;-64
2023/11/25 11:28:44;;;;;;;4.70;2.40;;;4.70;91.70;;;;;;4975892;28;20408;-64
2023/11/25 11:31:59;;;;;;;10.20;3.33;;;5.10;96.60;;;;;;4975630;28;20169;-64
2023/11/25 11:34:30;;;;;;;1.30;1.13;;;4.90;99.90;;;;;;4975500;28;20181;-65
2023/11/25 11:37:01;;;;;;;0.82;0.82;;;5.30;93.30;;;;;;4975361;28;20722;-64
2023/11/25 11:39:37;;;;;;;1.83;1.73;;;5.20;99.90;;;;;;4975485;28;20205;-64
2023/11/25 11:42:29;;;;;;;1.58;1.48;;;5.30;91.10;;;;;;4975514;28;20247;-64
2023/11/25 11:45:11;;;;;;;1.50;1.40;;;5.40;88.20;;;;;;4975180;28;20165;-64
2023/11/25 11:47:44;;;;;;;4.60;1.85;;;5.00;86.60;;;;;;4975419;28;20331;-64
2023/11/25 11:50:14;;;;;;;6.03;3.33;;;4.90;99.90;;;;;;4975671;28;20199;-64
2023/11/25 11:52:46;;;;;;;6.72;1.13;;;4.40;97.30;;;;;;4975160;28;20237;-64
2023/11/25 11:55:40;;;;;;;1.05;0.50;;;5.40;91.80;;;;;;4975160;28;20189;-64
2023/11/25 11:58:14;;;;;;;1.58;1.48;;;5.10;99.90;;;;;;4975169;28;20574;-65
2023/11/25 12:00:40;;;;;;;0.60;0.60;;;5.20;92.60;;;;;;4975216;28;20178;-65
2023/11/25 12:03:09;;;;;;;0.40;0.40;;;5.40;94.90;;;;;;4974744;28;20236;-64
2023/11/25 12:05:35;;;;;;;0.40;0.40;;;5.10;94.40;;;;;;4975032;28;20200;-64
2023/11/25 12:08:02;;;;;;;5.97;4.22;;;5.20;95.20;;;;;;4975052;28;20249;-65
2023/11/25 12:10:27;;;;;;;0.80;0.80;;;4.70;99.90;;;;;;4975053;28;20188;-65
2023/11/25 12:12:53;;;;;;;3.90;2.30;;;5.30;97.90;;;;;;4974599;28;20179;-65
2023/11/25 12:15:20;;;;;;;1.47;1.23;;;4.80;99.90;;;;;;4974824;28;20544;-65
2023/11/25 12:17:46;;;;;;;0.30;0.30;;;5.50;96.00;;;;;;4974527;28;20682;-64
2023/11/25 12:20:14;;;;;;;1.58;1.48;;;5.00;88.90;;;;;;4974633;28;20189;-64
2023/11/25 12:22:41;;;;;;;0.77;0.60;;;5.20;88.60;;;;;;4974480;28;20200;-65
2023/11/25 12:25:13;;;;;;;0.73;0.73;;;5.40;88.00;;;;;;4974641;28;20181;-64
2023/11/25 12:27:59;;;;;;;2.25;1.02;;;5.60;87.90;;;;;;4974722;28;20581;-65
2023/11/25 12:30:27;;;;;;;0.70;0.68;;;5.70;87.10;;;;;;4974870;28;20288;-64
2023/11/25 12:32:53;;;;;;;0.40;0.40;;;5.80;86.40;;;;;;4973244;28;20165;-64
2023/11/25 12:35:18;;;;;;;0.80;0.47;;;5.90;85.20;;;;;;4974419;28;20193;-64
2023/11/25 12:37:46;;;;;;;0.40;0.40;;;6.10;86.00;;;;;;4974382;28;20169;-65
2023/11/25 12:40:21;;;;;;;0.80;0.80;;;6.20;85.50;;;;;;4974440;28;20558;-64
2023/11/25 12:42:49;;;;;;;10.20;2.28;;;6.30;84.60;;;;;;4972743;28;20243;-64
2023/11/25 12:45:32;;;;;;;1.08;1.00;;;6.30;83.10;;;;;;4974227;28;20665;-64
2023/11/25 12:47:59;;;;;;;0.75;0.75;;;6.10;83.00;;;;;;4974250;28;20252;-65
2023/11/25 12:50:25;;;;;;;1.13;1.13;;;6.00;82.90;;;;;;4974219;28;20709;-65
2023/11/25 12:53:13;;;;;;;2.78;0.77;;;5.90;82.90;;;;;;4973578;28;20188;-64
2023/11/25 12:55:43;;;;;;;0.40;0.40;;;5.60;83.60;;;;;;4974078;28;20197;-65
2023/11/25 12:58:12;;;;;;;0.90;0.60;;;5.40;85.80;;;;;;4972497;28;20180;-64
2023/11/25 13:00:45;;;;;;;0.55;0.55;;;5.30;86.90;;;;;;4973796;28;20177;-65